Time;durP1;ratioP1;P1;durP2;ratioP2;P2;SDS_P1;SDS_P2;PMS_P1;PMS_P2;Temp;Humidity;BMP_temperature;BMP_pressure;BME280_temperature;BME280_humidity;BME280_pressure;Samples;Min_cycle;Max_cycle;Signal;HPM_P1;HPM_P2
2022/02/05 00:02:07;;;;;;;12.70;5.75;;;;;;;;;;5072418;28;20502;-68
2022/02/05 00:04:34;;;;;;;11.43;3.85;;;;;;;;;;5073435;28;20105;-68
2022/02/05 00:06:59;;;;;;;9.10;3.80;;;;;;;;;;5072759;28;20016;-67
2022/02/05 00:15:05;;;;;;;29.13;6.15;;;;;;;;;;5072906;28;20027;-68
2022/02/05 00:44:15;;;;;;;12.60;4.37;;;;;;;;;;5071879;28;20044;-68
2022/02/05 00:46:42;;;;;;;11.65;4.35;;;;;;;;;;5072253;28;20305;-68
2022/02/05 00:49:07;;;;;;;10.90;3.65;;;;;;;;;;5072085;28;20161;-68
2022/02/05 00:54:09;;;;;;;10.70;2.97;;;;;;;;;;5072268;28;20016;-68
2022/02/05 00:59:09;;;;;;;11.25;2.53;;;;;;;;;;5071803;28;20097;-68
2022/02/05 01:01:34;;;;;;;10.75;4.47;;;;;;;;;;5071282;28;20028;-68
2022/02/05 01:03:59;;;;;;;17.77;5.97;;;;;;;;;;5071870;28;20028;-68
2022/02/05 01:06:25;;;;;;;14.60;4.67;;;;;;;;;;5071267;28;20192;-68
2022/02/05 01:08:50;;;;;;;13.63;5.38;;;;;;;;;;5071847;28;20267;-68
2022/02/05 01:11:16;;;;;;;18.38;4.97;;;;;;;;;;5071214;28;20024;-68
2022/02/05 01:13:41;;;;;;;13.63;5.00;;;;;;;;;;5070733;28;20124;-68
2022/02/05 01:18:52;;;;;;;18.48;4.95;;;;;;;;;;5030001;28;20074;-68
2022/02/05 01:23:54;;;;;;;17.20;4.35;;;;;;;;;;5071758;28;20035;-68
2022/02/05 01:26:35;;;;;;;12.82;3.10;;;;;;;;;;5071139;28;20059;-68
2022/02/05 01:29:05;;;;;;;18.52;4.05;;;;;;;;;;5071250;28;20019;-68
2022/02/05 01:31:37;;;;;;;;;;;;;;;;;;5071718;28;20020;-68
2022/02/05 01:34:18;;;;;;;12.68;2.92;;;;;;;;;;5071198;28;19908;-68
2022/02/05 01:48:48;;;;;;;20.15;4.43;;;;;;;;;;5070963;28;20546;-68
2022/02/05 02:19:49;;;;;;;14.15;2.60;;;;;;;;;;5068938;28;20051;-68
2022/02/05 02:27:17;;;;;;;16.55;3.83;;;;;;;;;;5070783;28;20025;-68
2022/02/05 02:30:09;;;;;;;16.30;4.30;;;;;;;;;;5070043;28;20377;-68
2022/02/05 02:32:30;;;;;;;20.70;5.28;;;;;;;;;;5069498;28;20032;-68
2022/02/05 02:35:02;;;;;;;13.90;3.38;;;;;;;;;;5070188;28;20042;-68
2022/02/05 02:37:37;;;;;;;10.10;3.25;;;;;;;;;;5069886;28;20473;-68
2022/02/05 02:40:13;;;;;;;11.10;2.22;;;;;;;;;;5069693;28;20465;-68
2022/02/05 02:42:43;;;;;;;16.70;2.60;;;;;;;;;;5070300;28;20104;-68
2022/02/05 02:45:08;;;;;;;8.25;2.90;;;;;;;;;;5070384;28;20569;-68
2022/02/05 02:47:34;;;;;;;12.90;3.03;;;;;;;;;;5070200;28;20017;-68
2022/02/05 02:50:09;;;;;;;12.77;2.58;;;;;;;;;;5069698;28;20078;-68
2022/02/05 02:58:06;;;;;;;6.03;2.30;;;;;;;;;;5070383;28;20046;-68
2022/02/05 03:00:32;;;;;;;20.55;3.25;;;;;;;;;;5069806;28;20043;-68
2022/02/05 03:02:57;;;;;;;18.67;1.95;;;;;;;;;;5069910;28;20441;-68
2022/02/05 03:05:23;;;;;;;11.15;1.70;;;;;;;;;;5069568;28;20074;-68
2022/02/05 03:07:48;;;;;;;20.38;3.00;;;;;;;;;;5070028;28;20032;-68
2022/02/05 03:10:13;;;;;;;8.82;2.10;;;;;;;;;;5103058;22;20567;-69
2022/02/05 03:12:39;;;;;;;8.48;1.52;;;;;;;;;;5099225;28;20011;-70
2022/02/05 03:15:05;;;;;;;17.05;2.47;;;;;;;;;;5092360;28;20356;-70
2022/02/05 03:17:52;;;;;;;8.02;2.30;;;;;;;;;;5113868;28;20531;-70
2022/02/05 03:20:17;;;;;;;9.68;1.90;;;;;;;;;;5100199;28;20088;-70
2022/02/05 03:22:43;;;;;;;13.88;2.72;;;;;;;;;;5091500;28;20016;-70
2022/02/05 03:25:08;;;;;;;16.02;2.35;;;;;;;;;;5091367;28;20395;-70
2022/02/05 03:27:33;;;;;;;11.82;2.95;;;;;;;;;;5093394;28;20030;-70
2022/02/05 03:29:59;;;;;;;9.57;1.98;;;;;;;;;;5094033;28;20016;-70
2022/02/05 03:32:25;;;;;;;6.50;2.03;;;;;;;;;;5092556;28;20016;-70
2022/02/05 03:34:50;;;;;;;14.85;2.13;;;;;;;;;;5093420;28;20016;-70
2022/02/05 03:37:18;;;;;;;18.38;2.25;;;;;;;;;;5093703;28;20429;-70
2022/02/05 03:39:43;;;;;;;12.75;2.85;;;;;;;;;;5093859;28;20111;-70
2022/02/05 03:42:08;;;;;;;11.73;2.20;;;;;;;;;;5093613;28;20149;-70
2022/02/05 03:44:33;;;;;;;15.00;2.65;;;;;;;;;;5093453;28;20285;-70
2022/02/05 03:46:59;;;;;;;14.98;1.65;;;;;;;;;;5092808;28;20076;-70
2022/02/05 03:49:24;;;;;;;9.70;1.92;;;;;;;;;;5092432;28;20023;-70
2022/02/05 03:51:50;;;;;;;15.93;2.42;;;;;;;;;;5093128;28;20028;-70
2022/02/05 03:54:18;;;;;;;23.25;3.33;;;;;;;;;;5093163;28;20519;-70
2022/02/05 03:56:44;;;;;;;14.70;2.85;;;;;;;;;;5093055;28;20384;-70
2022/02/05 03:59:09;;;;;;;11.27;2.22;;;;;;;;;;5093292;28;20031;-70
2022/02/05 04:01:34;;;;;;;12.20;2.65;;;;;;;;;;5092380;28;20476;-70
2022/02/05 04:03:59;;;;;;;14.48;1.92;;;;;;;;;;5092856;28;20059;-70
2022/02/05 04:06:24;;;;;;;5.95;2.35;;;;;;;;;;5093298;28;20036;-70
2022/02/05 04:08:52;;;;;;;17.77;2.22;;;;;;;;;;5092725;28;20024;-70
2022/02/05 04:11:59;;;;;;;7.53;2.35;;;;;;;;;;5093214;28;20623;-70
2022/02/05 04:16:53;;;;;;;11.40;2.85;;;;;;;;;;5091876;28;20115;-70
2022/02/05 04:19:18;;;;;;;12.00;2.58;;;;;;;;;;5092368;28;20146;-70
2022/02/05 04:21:43;;;;;;;15.65;4.20;;;;;;;;;;5092280;28;20100;-70
2022/02/05 04:24:09;;;;;;;18.30;2.50;;;;;;;;;;5093015;28;20082;-70
2022/02/05 04:26:34;;;;;;;16.20;2.80;;;;;;;;;;5091764;28;20028;-70
2022/02/05 04:28:59;;;;;;;19.25;3.42;;;;;;;;;;5092132;28;20077;-70
2022/02/05 04:31:24;;;;;;;14.95;2.65;;;;;;;;;;5092115;28;20027;-70
2022/02/05 04:33:49;;;;;;;8.32;2.10;;;;;;;;;;5092775;28;20119;-70
2022/02/05 04:36:17;;;;;;;11.67;2.57;;;;;;;;;;5092031;28;20078;-70
2022/02/05 04:38:44;;;;;;;13.05;1.58;;;;;;;;;;5092073;28;20664;-70
2022/02/05 04:46:30;;;;;;;6.82;1.70;;;;;;;;;;5092320;28;20035;-70
2022/02/05 04:57:05;;;;;;;7.30;2.78;;;;;;;;;;5093288;28;20468;-70
2022/02/05 05:09:58;;;;;;;9.88;2.17;;;;;;;;;;5091269;28;20035;-70
2022/02/05 05:20:20;;;;;;;11.38;2.40;;;;;;;;;;5091238;28;20113;-70
2022/02/05 05:22:45;;;;;;;19.15;3.35;;;;;;;;;;5090199;28;20056;-69
2022/02/05 05:25:10;;;;;;;18.65;3.70;;;;;;;;;;5090565;28;20028;-68
2022/02/05 05:27:37;;;;;;;14.63;5.03;;;;;;;;;;5091486;28;20020;-67
2022/02/05 05:30:03;;;;;;;29.48;10.27;;;;;;;;;;5091090;28;20027;-70
2022/02/05 05:32:28;;;;;;;32.53;14.25;;;;;;;;;;5090880;28;20016;-70
2022/02/05 05:34:53;;;;;;;24.80;8.97;;;;;;;;;;5090237;28;20067;-72
2022/02/05 05:37:20;;;;;;;14.40;6.03;;;;;;;;;;5090606;28;20262;-70
2022/02/05 05:39:46;;;;;;;22.13;4.28;;;;;;;;;;5089523;28;20038;-71
2022/02/05 05:42:16;;;;;;;19.33;3.15;;;;;;;;;;5090703;28;20031;-72
2022/02/05 05:52:18;;;;;;;14.80;3.33;;;;;;;;;;5090567;28;20062;-71
2022/02/05 05:54:43;;;;;;;13.20;3.47;;;;;;;;;;5086277;28;20066;-72
2022/02/05 05:57:08;;;;;;;23.10;3.65;;;;;;;;;;5091301;28;20024;-71
2022/02/05 05:59:34;;;;;;;13.43;2.53;;;;;;;;;;5090156;28;20538;-71
2022/02/05 06:01:59;;;;;;;10.82;2.90;;;;;;;;;;5090026;28;20545;-71
2022/02/05 06:04:24;;;;;;;10.47;2.73;;;;;;;;;;5087869;28;20095;-71
2022/02/05 06:06:49;;;;;;;15.93;3.13;;;;;;;;;;5088962;28;20773;-72
2022/02/05 06:09:14;;;;;;;21.13;3.53;;;;;;;;;;5090129;28;20020;-71
2022/02/05 06:11:40;;;;;;;11.57;3.40;;;;;;;;;;5090004;28;20062;-69
2022/02/05 06:14:05;;;;;;;21.73;2.90;;;;;;;;;;5090057;28;20058;-72
2022/02/05 06:16:33;;;;;;;13.98;3.17;;;;;;;;;;5089535;28;20270;-71
2022/02/05 06:18:58;;;;;;;18.42;3.45;;;;;;;;;;5083648;28;20362;-70
2022/02/05 06:21:23;;;;;;;15.27;2.83;;;;;;;;;;5089911;28;20031;-71
2022/02/05 06:23:48;;;;;;;5.43;1.73;;;;;;;;;;5089601;28;20403;-71
2022/02/05 06:26:14;;;;;;;12.93;2.97;;;;;;;;;;5109189;28;20031;-72
2022/02/05 06:28:39;;;;;;;12.40;3.25;;;;;;;;;;5087348;28;20020;-71
2022/02/05 06:31:04;;;;;;;27.27;3.33;;;;;;;;;;5089670;28;20052;-71
2022/02/05 06:33:29;;;;;;;25.83;2.75;;;;;;;;;;5089769;28;20016;-72
2022/02/05 06:35:54;;;;;;;21.85;3.80;;;;;;;;;;5090113;28;20020;-70
2022/02/05 06:38:20;;;;;;;14.18;2.67;;;;;;;;;;5089993;28;20020;-71
2022/02/05 06:40:45;;;;;;;12.93;2.10;;;;;;;;;;5089683;28;20419;-71
2022/02/05 06:43:11;;;;;;;20.15;3.30;;;;;;;;;;5089345;28;20091;-72
2022/02/05 06:45:36;;;;;;;20.02;2.60;;;;;;;;;;5087093;28;20048;-70
2022/02/05 06:48:02;;;;;;;15.68;2.25;;;;;;;;;;5087591;28;20063;-69
2022/02/05 06:50:27;;;;;;;22.98;3.05;;;;;;;;;;5063818;28;20115;-69
2022/02/05 06:52:52;;;;;;;12.93;2.90;;;;;;;;;;5088556;28;20067;-70
2022/02/05 06:55:17;;;;;;;19.30;2.78;;;;;;;;;;5095195;28;20036;-71
2022/02/05 06:57:42;;;;;;;17.27;2.77;;;;;;;;;;5094658;28;20019;-69
2022/02/05 07:00:08;;;;;;;11.07;2.95;;;;;;;;;;5094225;28;20823;-70
2022/02/05 07:02:34;;;;;;;7.00;2.38;;;;;;;;;;5093608;28;20023;-70
2022/02/05 07:04:59;;;;;;;11.20;3.17;;;;;;;;;;5094216;28;20027;-70
2022/02/05 07:07:24;;;;;;;17.70;3.38;;;;;;;;;;5094337;28;20119;-69
2022/02/05 07:09:50;;;;;;;18.63;2.80;;;;;;;;;;5094064;28;20015;-71
2022/02/05 07:12:15;;;;;;;18.90;2.97;;;;;;;;;;5093009;28;20045;-67
2022/02/05 07:14:57;;;;;;;13.07;3.45;;;;;;;;;;5093634;28;20016;-70
2022/02/05 07:17:49;;;;;;;18.58;3.78;;;;;;;;;;5093667;28;20067;-69
2022/02/05 07:22:48;;;;;;;11.15;2.13;;;;;;;;;;5094219;28;20031;-69
2022/02/05 07:30:41;;;;;;;13.07;2.83;;;;;;;;;;5093167;28;20051;-70
2022/02/05 07:33:06;;;;;;;13.25;3.00;;;;;;;;;;5095579;28;20492;-74
2022/02/05 07:35:32;;;;;;;10.93;3.38;;;;;;;;;;5094801;28;20194;-69
2022/02/05 07:37:57;;;;;;;13.65;2.47;;;;;;;;;;5095443;28;20476;-71
2022/02/05 07:40:22;;;;;;;21.90;3.33;;;;;;;;;;5094915;28;20027;-70
2022/02/05 07:42:47;;;;;;;12.43;3.00;;;;;;;;;;5095902;28;20379;-71
2022/02/05 07:45:12;;;;;;;12.23;2.60;;;;;;;;;;5096109;28;20031;-71
2022/02/05 07:47:38;;;;;;;9.82;3.38;;;;;;;;;;5094950;28;20016;-71
2022/02/05 07:50:03;;;;;;;24.13;3.13;;;;;;;;;;5095804;28;20027;-69
2022/02/05 07:52:28;;;;;;;11.23;3.30;;;;;;;;;;5094172;28;20069;-70
2022/02/05 07:54:54;;;;;;;17.65;3.22;;;;;;;;;;5096019;28;20372;-69
2022/02/05 07:57:19;;;;;;;6.30;2.08;;;;;;;;;;5096025;28;20067;-71
2022/02/05 07:59:44;;;;;;;15.50;2.67;;;;;;;;;;5091704;28;20016;-71
2022/02/05 08:02:09;;;;;;;9.70;2.50;;;;;;;;;;5090692;28;20281;-70
2022/02/05 08:04:35;;;;;;;36.75;3.83;;;;;;;;;;5091280;28;20560;-70
2022/02/05 08:07:01;;;;;;;18.15;3.08;;;;;;;;;;5071904;28;20065;-70
2022/02/05 08:09:41;;;;;;;16.95;3.05;;;;;;;;;;5090730;28;20023;-70
2022/02/05 08:12:10;;;;;;;13.02;2.90;;;;;;;;;;5090552;28;20102;-69
2022/02/05 08:14:39;;;;;;;19.83;2.95;;;;;;;;;;5084558;28;20389;-69
2022/02/05 08:17:14;;;;;;;20.23;3.13;;;;;;;;;;5090895;28;20510;-70
2022/02/05 08:19:39;;;;;;;11.30;2.42;;;;;;;;;;5090238;28;20028;-68
2022/02/05 08:22:05;;;;;;;7.53;2.53;;;;;;;;;;5090026;28;20035;-69
2022/02/05 08:24:30;;;;;;;22.30;4.07;;;;;;;;;;5090971;28;20672;-69
2022/02/05 08:26:55;;;;;;;9.50;2.30;;;;;;;;;;5090308;28;20571;-69
2022/02/05 08:29:21;;;;;;;13.13;3.07;;;;;;;;;;5089771;28;20070;-72
2022/02/05 08:31:46;;;;;;;12.85;2.92;;;;;;;;;;5090069;28;20280;-72
2022/02/05 08:34:12;;;;;;;16.30;3.10;;;;;;;;;;5090267;28;20472;-69
2022/02/05 08:36:42;;;;;;;22.13;3.15;;;;;;;;;;5091063;28;20085;-73
2022/02/05 08:39:07;;;;;;;12.55;3.35;;;;;;;;;;5088823;28;20099;-72
2022/02/05 08:41:33;;;;;;;28.10;3.63;;;;;;;;;;5089227;28;20076;-69
2022/02/05 08:43:58;;;;;;;13.48;2.45;;;;;;;;;;5088031;28;20035;-71
2022/02/05 08:46:24;;;;;;;7.70;1.95;;;;;;;;;;5089354;28;20020;-71
2022/02/05 08:48:49;;;;;;;18.70;3.60;;;;;;;;;;5091836;28;20043;-71
2022/02/05 08:51:15;;;;;;;26.20;4.43;;;;;;;;;;5091566;28;20024;-70
2022/02/05 08:53:40;;;;;;;15.70;2.95;;;;;;;;;;5091543;28;20266;-72
2022/02/05 08:56:05;;;;;;;12.45;2.65;;;;;;;;;;5085258;28;20029;-72
2022/02/05 08:58:31;;;;;;;10.90;2.90;;;;;;;;;;5084255;28;20024;-70
2022/02/05 09:01:13;;;;;;;15.80;3.50;;;;;;;;;;5091379;28;20449;-70
2022/02/05 09:03:47;;;;;;;12.77;2.97;;;;;;;;;;5091213;28;20021;-72
2022/02/05 09:06:12;;;;;;;10.80;3.20;;;;;;;;;;5092523;28;20024;-71
2022/02/05 09:08:48;;;;;;;13.18;3.78;;;;;;;;;;5091455;28;20022;-69
2022/02/05 09:16:11;;;;;;;14.50;2.97;;;;;;;;;;5091103;28;20024;-70
2022/02/05 09:18:37;;;;;;;9.07;2.03;;;;;;;;;;5082850;28;20028;-71
2022/02/05 09:21:02;;;;;;;13.07;2.35;;;;;;;;;;5090963;28;20035;-70
2022/02/05 09:23:28;;;;;;;15.23;3.08;;;;;;;;;;5082188;28;20486;-70
2022/02/05 09:25:53;;;;;;;18.25;3.92;;;;;;;;;;5084806;28;20039;-70
2022/02/05 09:28:20;;;;;;;15.50;1.88;;;;;;;;;;5090546;28;20022;-69
2022/02/05 09:30:50;;;;;;;16.00;3.35;;;;;;;;;;5091786;28;20023;-70
2022/02/05 09:33:15;;;;;;;14.10;3.37;;;;;;;;;;5091011;28;20016;-73
2022/02/05 09:35:40;;;;;;;20.55;3.50;;;;;;;;;;5091152;28;20022;-69
2022/02/05 09:38:06;;;;;;;17.20;3.70;;;;;;;;;;5090677;28;20027;-72
2022/02/05 09:40:32;;;;;;;20.98;3.92;;;;;;;;;;5091057;28;20028;-72
2022/02/05 09:42:58;;;;;;;12.90;1.98;;;;;;;;;;5089840;28;20052;-70
2022/02/05 09:45:23;;;;;;;16.48;3.67;;;;;;;;;;5091169;28;20063;-69
2022/02/05 09:47:49;;;;;;;21.70;3.95;;;;;;;;;;5090420;28;20044;-71
2022/02/05 09:50:15;;;;;;;20.23;4.55;;;;;;;;;;5084080;28;20487;-71
2022/02/05 09:52:40;;;;;;;11.68;3.03;;;;;;;;;;5082387;28;20058;-70
2022/02/05 09:55:06;;;;;;;11.98;3.45;;;;;;;;;;5078649;28;20472;-72
2022/02/05 09:57:31;;;;;;;22.15;4.63;;;;;;;;;;5088825;28;20042;-70
2022/02/05 09:59:59;;;;;;;12.63;3.92;;;;;;;;;;5088150;28;20491;-71
2022/02/05 10:02:24;;;;;;;14.45;3.42;;;;;;;;;;5089195;28;20031;-71
2022/02/05 10:04:54;;;;;;;8.80;2.55;;;;;;;;;;5089008;28;20020;-69
2022/02/05 10:07:19;;;;;;;11.98;3.40;;;;;;;;;;5088173;28;20048;-72
2022/02/05 10:10:01;;;;;;;17.13;2.92;;;;;;;;;;5088525;28;20063;-71
2022/02/05 10:12:27;;;;;;;18.08;3.30;;;;;;;;;;5085959;28;20023;-72
2022/02/05 10:14:55;;;;;;;16.60;4.32;;;;;;;;;;5087374;28;20396;-71
2022/02/05 10:17:20;;;;;;;11.95;3.30;;;;;;;;;;5081421;28;20024;-71
2022/02/05 10:19:47;;;;;;;14.35;3.95;;;;;;;;;;5071617;28;20103;-72
2022/02/05 10:22:13;;;;;;;10.63;3.15;;;;;;;;;;5087737;28;20053;-72
2022/02/05 10:25:01;;;;;;;12.23;2.78;;;;;;;;;;5082597;28;20020;-71
2022/02/05 10:27:41;;;;;;;14.55;2.45;;;;;;;;;;5084797;28;20107;-71
2022/02/05 10:30:20;;;;;;;7.63;2.43;;;;;;;;;;5062924;28;20480;-71
2022/02/05 10:32:49;;;;;;;14.20;3.40;;;;;;;;;;5087479;28;20016;-71
2022/02/05 10:35:23;;;;;;;12.27;2.47;;;;;;;;;;5069713;28;20031;-72
2022/02/05 10:37:58;;;;;;;10.93;2.30;;;;;;;;;;5069710;28;20368;-72
2022/02/05 10:40:42;;;;;;;19.25;3.45;;;;;;;;;;5088510;28;20467;-72
2022/02/05 10:43:07;;;;;;;16.52;4.07;;;;;;;;;;5086457;28;20054;-72
2022/02/05 10:45:49;;;;;;;24.70;3.53;;;;;;;;;;5082989;28;20031;-74
2022/02/05 10:48:18;;;;;;;10.40;3.20;;;;;;;;;;5089958;28;20036;-73
2022/02/05 10:50:43;;;;;;;11.88;2.15;;;;;;;;;;5089471;28;20078;-73
2022/02/05 10:53:16;;;;;;;13.80;4.22;;;;;;;;;;5086930;28;20054;-72
2022/02/05 11:07:03;;;;;;;12.88;3.58;;;;;;;;;;5088692;28;20119;-71
2022/02/05 11:09:28;;;;;;;15.85;4.55;;;;;;;;;;5088446;28;20087;-71
2022/02/05 11:20:34;;;;;;;17.02;3.60;;;;;;;;;;5081264;28;20020;-73
2022/02/05 11:23:05;;;;;;;18.03;3.60;;;;;;;;;;5087199;28;20036;-71
2022/02/05 11:25:33;;;;;;;10.02;2.60;;;;;;;;;;5085323;28;20289;-73
2022/02/05 11:27:58;;;;;;;18.05;3.95;;;;;;;;;;5083812;28;20024;-69
2022/02/05 11:30:26;;;;;;;14.40;4.38;;;;;;;;;;5069942;28;20027;-72
2022/02/05 11:32:52;;;;;;;28.10;8.93;;;;;;;;;;5069186;28;20046;-71
2022/02/05 11:35:30;;;;;;;27.90;9.70;;;;;;;;;;5053204;28;20050;-72
2022/02/05 11:37:57;;;;;;;19.73;6.35;;;;;;;;;;5071366;28;20028;-73
2022/02/05 11:40:49;;;;;;;12.82;2.88;;;;;;;;;;5090936;28;21004;-74
2022/02/05 11:43:14;;;;;;;10.48;3.03;;;;;;;;;;5087584;28;20040;-71
2022/02/05 11:45:40;;;;;;;18.63;2.70;;;;;;;;;;5074176;28;20028;-69
2022/02/05 11:48:23;;;;;;;10.82;2.80;;;;;;;;;;5092157;28;20028;-73
2022/02/05 11:51:07;;;;;;;13.23;2.80;;;;;;;;;;5087495;28;20503;-72
2022/02/05 11:53:53;;;;;;;8.43;2.22;;;;;;;;;;5072534;28;20032;-72
2022/02/05 11:56:18;;;;;;;7.88;2.60;;;;;;;;;;5071618;28;20037;-71
2022/02/05 11:58:57;;;;;;;17.77;3.85;;;;;;;;;;5069352;28;20016;-70
2022/02/05 12:01:36;;;;;;;19.08;2.67;;;;;;;;;;5080124;28;20024;-71
2022/02/05 12:04:12;;;;;;;7.95;3.17;;;;;;;;;;5075918;28;20024;-72
2022/02/05 12:06:44;;;;;;;7.53;3.20;;;;;;;;;;5093145;28;20016;-72
2022/02/05 12:09:28;;;;;;;16.88;2.83;;;;;;;;;;5090625;28;20034;-72
2022/02/05 12:11:53;;;;;;;9.10;2.53;;;;;;;;;;5091634;28;20020;-72
2022/02/05 12:14:18;;;;;;;11.70;2.95;;;;;;;;;;5091808;28;20032;-72
2022/02/05 12:17:02;;;;;;;9.67;2.87;;;;;;;;;;5091934;28;20070;-72
2022/02/05 12:19:28;;;;;;;13.52;4.07;;;;;;;;;;5092728;28;20260;-72
2022/02/05 12:21:59;;;;;;;7.35;2.03;;;;;;;;;;5092787;28;20031;-72
2022/02/05 12:24:37;;;;;;;6.68;2.13;;;;;;;;;;5071459;28;20538;-72
2022/02/05 12:27:23;;;;;;;30.73;3.20;;;;;;;;;;5072862;28;20024;-72
2022/02/05 12:29:48;;;;;;;12.45;3.03;;;;;;;;;;5090489;28;20111;-74
2022/02/05 12:32:13;;;;;;;15.30;3.03;;;;;;;;;;5081007;28;20091;-72
2022/02/05 12:34:38;;;;;;;15.00;3.20;;;;;;;;;;5092852;28;20016;-72
2022/02/05 12:37:04;;;;;;;7.27;2.00;;;;;;;;;;5083659;28;20020;-72
2022/02/05 12:39:30;;;;;;;20.02;3.30;;;;;;;;;;5080349;28;20290;-72
2022/02/05 12:41:56;;;;;;;9.65;1.88;;;;;;;;;;5070596;28;20012;-72
2022/02/05 12:44:22;;;;;;;12.27;3.10;;;;;;;;;;5081847;28;20472;-72
2022/02/05 12:46:53;;;;;;;8.45;2.67;;;;;;;;;;5092702;28;20328;-72
2022/02/05 12:49:23;;;;;;;7.35;2.33;;;;;;;;;;5092205;28;20062;-72
2022/02/05 12:51:49;;;;;;;11.50;3.45;;;;;;;;;;5091722;28;20020;-72
2022/02/05 12:54:16;;;;;;;7.63;3.05;;;;;;;;;;5092672;28;20055;-72
2022/02/05 12:56:43;;;;;;;4.85;1.77;;;;;;;;;;5092068;28;20046;-72
2022/02/05 12:59:14;;;;;;;12.00;2.38;;;;;;;;;;5092199;28;20103;-72
2022/02/05 13:01:56;;;;;;;8.20;1.85;;;;;;;;;;5091976;28;20023;-72
2022/02/05 13:04:23;;;;;;;6.88;2.75;;;;;;;;;;5092134;28;20627;-72
2022/02/05 13:07:18;;;;;;;10.73;2.90;;;;;;;;;;5092190;28;20054;-72
2022/02/05 13:12:10;;;;;;;7.00;2.42;;;;;;;;;;5091703;28;20024;-72
2022/02/05 13:14:50;;;;;;;12.98;2.40;;;;;;;;;;5091933;28;20019;-72
2022/02/05 13:17:28;;;;;;;6.40;2.17;;;;;;;;;;5092078;28;20016;-72
2022/02/05 13:20:18;;;;;;;9.23;2.83;;;;;;;;;;5091424;28;20297;-72
2022/02/05 13:25:48;;;;;;;4.97;1.60;;;;;;;;;;5086982;28;20072;-72
2022/02/05 13:36:11;;;;;;;6.90;1.77;;;;;;;;;;5091323;28;20107;-72
2022/02/05 13:38:55;;;;;;;15.32;2.28;;;;;;;;;;5091430;28;20073;-72
2022/02/05 13:41:27;;;;;;;2.47;1.55;;;;;;;;;;5091042;28;20028;-72
2022/02/05 13:43:55;;;;;;;9.18;1.55;;;;;;;;;;5090442;28;20066;-72
2022/02/05 13:46:21;;;;;;;1.13;0.90;;;;;;;;;;5091283;28;20020;-72
2022/02/05 13:48:47;;;;;;;10.23;1.52;;;;;;;;;;5090664;28;20091;-72
2022/02/05 13:51:12;;;;;;;2.58;1.25;;;;;;;;;;5090102;28;20016;-72
2022/02/05 13:53:48;;;;;;;4.93;1.38;;;;;;;;;;5090822;28;20047;-72
2022/02/05 13:56:13;;;;;;;6.25;1.88;;;;;;;;;;5079860;28;20103;-72
2022/02/05 13:58:39;;;;;;;5.55;1.63;;;;;;;;;;5088207;28;20099;-72
2022/02/05 14:01:04;;;;;;;8.50;2.00;;;;;;;;;;5089034;28;20046;-71
2022/02/05 14:03:32;;;;;;;9.98;1.65;;;;;;;;;;5089009;28;20023;-72
2022/02/05 14:06:00;;;;;;;12.30;1.60;;;;;;;;;;5089761;28;20012;-73
2022/02/05 14:08:30;;;;;;;16.38;2.50;;;;;;;;;;5094154;28;20087;-72
2022/02/05 14:10:56;;;;;;;7.82;2.30;;;;;;;;;;5090092;28;20511;-72
2022/02/05 14:13:21;;;;;;;8.85;3.15;;;;;;;;;;5090865;28;20020;-72
2022/02/05 14:15:51;;;;;;;12.55;1.80;;;;;;;;;;5091086;28;20338;-72
2022/02/05 14:18:16;;;;;;;10.73;2.90;;;;;;;;;;5090750;28;20070;-72
2022/02/05 14:20:52;;;;;;;7.55;3.25;;;;;;;;;;5089996;28;20039;-74
2022/02/05 14:23:19;;;;;;;15.38;2.97;;;;;;;;;;5085968;28;20090;-73
2022/02/05 14:26:07;;;;;;;10.80;2.72;;;;;;;;;;5080143;28;20024;-76
2022/02/05 14:28:41;;;;;;;6.65;1.50;;;;;;;;;;5079227;28;20027;-73
2022/02/05 14:31:13;;;;;;;9.85;2.22;;;;;;;;;;5079098;28;20028;-74
2022/02/05 14:41:47;;;;;;;3.60;1.52;;;;;;;;;;5081753;28;20038;-72
2022/02/05 14:44:12;;;;;;;16.05;3.47;;;;;;;;;;5089291;28;20095;-72
2022/02/05 14:46:40;;;;;;;10.25;2.78;;;;;;;;;;5078834;28;20012;-72
2022/02/05 14:49:05;;;;;;;6.07;1.35;;;;;;;;;;5088743;28;20016;-72
2022/02/05 14:51:31;;;;;;;8.25;1.88;;;;;;;;;;5089145;28;20495;-72
2022/02/05 14:53:58;;;;;;;10.15;1.95;;;;;;;;;;5089272;28;20055;-72
2022/02/05 14:56:24;;;;;;;11.63;2.35;;;;;;;;;;5089794;28;20507;-74
2022/02/05 14:58:50;;;;;;;5.18;1.30;;;;;;;;;;5090314;28;20024;-72
2022/02/05 15:01:20;;;;;;;8.38;1.75;;;;;;;;;;5069391;28;20032;-72
2022/02/05 15:03:46;;;;;;;17.80;2.00;;;;;;;;;;5084030;28;20035;-72
2022/02/05 15:06:18;;;;;;;10.93;2.05;;;;;;;;;;5084588;28;20032;-72
2022/02/05 15:08:44;;;;;;;5.65;1.38;;;;;;;;;;5084543;28;20035;-72
2022/02/05 15:11:09;;;;;;;8.27;2.10;;;;;;;;;;5116779;22;20044;-69
2022/02/05 15:13:34;;;;;;;6.00;1.67;;;;;;;;;;5108088;28;20386;-69
2022/02/05 15:16:01;;;;;;;16.42;1.20;;;;;;;;;;5108522;28;20275;-69
2022/02/05 15:18:27;;;;;;;7.15;1.65;;;;;;;;;;5108440;28;20046;-69
2022/02/05 15:20:52;;;;;;;11.20;4.18;;;;;;;;;;5094720;28;20315;-68
2022/02/05 15:23:19;;;;;;;7.53;2.08;;;;;;;;;;5089952;28;20020;-69
2022/02/05 15:25:44;;;;;;;11.48;2.00;;;;;;;;;;5091620;28;20086;-68
2022/02/05 15:28:10;;;;;;;8.85;2.00;;;;;;;;;;5088891;28;20374;-69
2022/02/05 15:30:35;;;;;;;6.88;2.03;;;;;;;;;;5071222;28;20479;-69
2022/02/05 15:33:03;;;;;;;10.93;1.23;;;;;;;;;;5089285;28;20540;-69
2022/02/05 15:35:28;;;;;;;5.88;2.13;;;;;;;;;;5092858;28;20026;-69
2022/02/05 15:38:00;;;;;;;7.95;2.13;;;;;;;;;;5093332;28;20032;-69
2022/02/05 15:43:27;;;;;;;6.53;1.13;;;;;;;;;;5092648;28;20020;-70
2022/02/05 15:45:54;;;;;;;6.53;1.50;;;;;;;;;;5092343;28;20499;-69
2022/02/05 15:48:19;;;;;;;10.88;1.80;;;;;;;;;;5091448;28;20055;-69
2022/02/05 15:50:44;;;;;;;7.40;1.83;;;;;;;;;;5094853;28;20023;-69
2022/02/05 15:53:11;;;;;;;14.75;2.10;;;;;;;;;;5095002;28;20250;-69
2022/02/05 15:55:38;;;;;;;10.50;3.47;;;;;;;;;;5095714;28;20077;-69
2022/02/05 15:58:19;;;;;;;7.53;1.55;;;;;;;;;;5096372;28;20088;-69
2022/02/05 16:00:45;;;;;;;6.85;2.20;;;;;;;;;;5092857;28;20078;-69
2022/02/05 16:03:11;;;;;;;7.18;0.98;;;;;;;;;;5094640;28;20411;-69
2022/02/05 16:05:36;;;;;;;5.38;1.90;;;;;;;;;;5092643;28;20027;-69
2022/02/05 16:08:01;;;;;;;12.52;2.13;;;;;;;;;;5091653;28;20024;-69
2022/02/05 16:10:27;;;;;;;8.38;3.20;;;;;;;;;;5094767;28;20066;-69
2022/02/05 16:12:52;;;;;;;14.15;5.93;;;;;;;;;;5091418;28;20020;-69
2022/02/05 16:15:17;;;;;;;22.52;6.57;;;;;;;;;;5091020;28;20102;-69
2022/02/05 16:17:43;;;;;;;19.85;5.00;;;;;;;;;;5090832;28;20099;-69
2022/02/05 16:20:09;;;;;;;13.25;1.85;;;;;;;;;;5092058;28;20020;-68
2022/02/05 16:22:37;;;;;;;4.50;1.30;;;;;;;;;;5090447;28;20028;-69
2022/02/05 16:25:03;;;;;;;8.68;1.25;;;;;;;;;;5089975;28;20107;-69
2022/02/05 16:27:29;;;;;;;5.55;2.10;;;;;;;;;;5092033;28;20135;-69
2022/02/05 16:29:57;;;;;;;7.20;1.50;;;;;;;;;;5090206;28;20205;-69
2022/02/05 16:32:22;;;;;;;12.35;1.60;;;;;;;;;;5089798;28;20080;-69
2022/02/05 16:34:52;;;;;;;14.95;1.58;;;;;;;;;;5090068;28;20091;-69
2022/02/05 16:37:18;;;;;;;;;;;;;;;;;;5082985;28;20449;-69
2022/02/05 16:39:44;;;;;;;2.53;1.20;;;;;;;;;;5077596;28;19904;-69
2022/02/05 16:42:09;;;;;;;3.55;0.95;;;;;;;;;;5077061;28;20059;-69
2022/02/05 16:44:35;;;;;;;12.55;2.45;;;;;;;;;;5080413;28;20395;-69
2022/02/05 16:47:00;;;;;;;7.97;1.73;;;;;;;;;;5074281;28;20034;-69
2022/02/05 16:49:26;;;;;;;8.95;1.35;;;;;;;;;;5087685;28;20464;-69
2022/02/05 16:51:52;;;;;;;5.03;1.23;;;;;;;;;;5090274;28;20011;-69
2022/02/05 16:54:18;;;;;;;12.70;2.40;;;;;;;;;;5091728;28;20012;-69
2022/02/05 16:56:43;;;;;;;9.35;1.60;;;;;;;;;;5090750;28;20050;-69
2022/02/05 16:59:08;;;;;;;7.10;1.48;;;;;;;;;;5082167;28;20051;-70
2022/02/05 17:01:33;;;;;;;8.67;1.27;;;;;;;;;;5091501;28;20074;-69
2022/02/05 17:03:59;;;;;;;5.38;1.83;;;;;;;;;;5090974;28;20293;-69
2022/02/05 17:06:27;;;;;;;9.45;1.65;;;;;;;;;;5088598;28;20217;-69
2022/02/05 17:08:54;;;;;;;3.65;1.08;;;;;;;;;;5090186;28;20120;-69
2022/02/05 17:11:19;;;;;;;9.93;2.40;;;;;;;;;;5090173;28;20457;-69
2022/02/05 17:13:44;;;;;;;8.55;2.00;;;;;;;;;;5091185;28;20103;-69
2022/02/05 17:16:11;;;;;;;10.52;1.73;;;;;;;;;;5091220;28;20385;-69
2022/02/05 17:18:36;;;;;;;6.43;1.80;;;;;;;;;;5090943;28;20099;-68
2022/02/05 17:21:02;;;;;;;7.82;1.65;;;;;;;;;;5089950;28;20103;-69
2022/02/05 17:23:30;;;;;;;3.33;1.25;;;;;;;;;;5090711;28;20269;-68
2022/02/05 17:25:56;;;;;;;7.18;2.03;;;;;;;;;;5088901;28;20016;-68
2022/02/05 17:28:22;;;;;;;9.43;2.33;;;;;;;;;;5087100;28;20024;-68
2022/02/05 17:30:47;;;;;;;11.02;1.50;;;;;;;;;;5090768;28;20016;-69
2022/02/05 17:33:14;;;;;;;12.52;2.33;;;;;;;;;;5090125;28;20496;-68
2022/02/05 17:35:42;;;;;;;5.15;1.60;;;;;;;;;;5063295;28;20028;-68
2022/02/05 17:38:09;;;;;;;8.98;0.85;;;;;;;;;;5090884;28;20046;-69
2022/02/05 17:40:34;;;;;;;16.40;1.15;;;;;;;;;;5086620;28;20388;-68
2022/02/05 17:42:59;;;;;;;8.57;1.75;;;;;;;;;;5090799;28;20020;-68
2022/02/05 17:45:25;;;;;;;12.23;2.05;;;;;;;;;;5086555;28;20031;-68
2022/02/05 17:47:50;;;;;;;12.90;2.17;;;;;;;;;;5090032;28;20051;-69
2022/02/05 17:50:15;;;;;;;11.65;2.70;;;;;;;;;;5088832;28;20449;-68
2022/02/05 17:52:40;;;;;;;4.80;1.75;;;;;;;;;;5088469;28;20039;-68